Share

Altamont, MO

8:14 PM CDT on April 23, 2014 (GMT -0500)
KMOMAYSV2 Elev 971 ft | 39.88 °N, 94.39 °W | Change Station

Current weather conditions updated 22 seconds ago

Clear
Clear
64.0 °F
Feels Like 64.0 °F
N
8.5
Wind Variable Wind from SE
Gusts 8.5 mph
Sunrise 6:26 AM
Sunset 8:02 PM
Moon Waning Crescent

Tomorrow is forecast to be Much Cooler than today. Rain with a few rumbles of thunder.

Pressure 29.72 in
Visibility 10.0 miles
Clouds Clear
Dew Point 17 °F
Humidity 16%
Rainfall -999.00 in
Snow Depth Not available.
UV 0.0 out of 16
Pollen 9.60 out of 12
Air Quality Not available.
Flu Activity Sporadic
METAR KGPH 240115Z AUTO 12008G14KT 10SM CLR 21/04 A2972 RMK AO2

More Conditions Fewer Conditions

Pressure 29.72 in
Visibility 10.0 miles
Clouds Clear
Dew Point 17 °F
Humidity 16%
Rainfall -999.00 in
Snow Depth Not available.
UV 0.0 out of 16
Pollen 9.60 out of 12
Air Quality Not available.
Flu Activity Sporadic
METAR KGPH 240115Z AUTO 12008G14KT 10SM CLR 21/04 A2972 RMK AO2

More Conditions Fewer Conditions

10-Day Weather Forecast

Almanac

Astronomy

Apr. 23, 2014 Rise Set
Actual Time 6:26 AM CDT 8:02 PM CDT
Civil Twilight 5:58 AM CDT 8:31 PM CDT
Nautical Twilight 5:23 AM CDT 9:06 PM CDT
Astronomical Twilight 4:47 AM CDT 9:43 PM CDT
Moon 2:58 AM CDT (4/23) 2:12 PM CDT (4/23)
Length of Visible Light 14h 33m
Length of Day
13h 35m
Tomorrow will be 2m 23s longer.
Waning Crescent, 31% of the Moon is Illuminated
Today
Waning Crescent
Apr 29
New
May 6
First Quarter
May 14
Full
May 21
Last Quarter

Today's Extremes

State Highs State Lows

Community

  • Nestled In
    Nestled In
  • Stunning Sunrise
    Stunning Sunrise
  • spring flowers
    spring flowers
  • Earth Day Spectrum Ove' Blue
    Earth Day Spectrum Ove' Blue
  • BARN B&W
    BARN B&W

WunderPhotos

Upload Photos

1,704,485 photos uploaded!

Nearby

Snow Depth

Station Depth Elevation
No new snow has been reported.

Coastal Water Temperatures

Place Temperature
No Stations Reporting

Earthquake Activity

City Distance Mag. Time & Date
No recent earthquake activity has been reported nearby.
Minimum magnitude displayed is 2.5.

Nearby Weather Stations

Station Location Temp. Dew Point Humidity Wind Precip. Elev Updated Type
MAYSVILLE, MO 64.0 °F 17 °F 16% SE  at  8.5 mph - / hr 971 ft 8:14 PM CDT Rapid Fire
MesoWest COBURN , Jamesport, MO 64 °F - - North  at  - 0.00 in / hr 901 ft 6:00 PM CDT MADIS
MesoWest NETTLE , Hamilton, MO 72 °F - - North  at  - 0.00 in / hr 772 ft 6:35 PM CDT MADIS

Show More Stations Show Fewer Stations

What do you think?

We're not finished. Please let us know what you like, what you don't like, and what you are still missing.